Time;durP1;ratioP1;P1;durP2;ratioP2;P2;SDS_P1;SDS_P2;PMS_P1;PMS_P2;Temp;Humidity;BMP_temperature;BMP_pressure;BME280_temperature;BME280_humidity;BME280_pressure;Samples;Min_cycle;Max_cycle;Signal;HPM_P1;HPM_P2
2021/12/10 00:00:20;;;;;;;210.27;76.50;;;;;;;;;;731420;190;634343;-69
2021/12/10 00:02:46;;;;;;;165.73;73.70;;;;;;;;;;739935;189;616188;-68
2021/12/10 00:05:12;;;;;;;183.57;73.53;;;;;;;;;;723509;189;918532;-68
2021/12/10 00:07:38;;;;;;;178.23;68.60;;;;;;;;;;722932;190;919478;-68
2021/12/10 00:10:04;;;;;;;163.80;62.93;;;;;;;;;;733273;189;919445;-68
2021/12/10 00:12:30;;;;;;;172.27;68.90;;;;;;;;;;728290;189;919156;-70
2021/12/10 00:14:56;;;;;;;185.80;70.30;;;;;;;;;;733020;189;919674;-68
2021/12/10 00:17:23;;;;;;;181.20;65.83;;;;;;;;;;733492;189;1021436;-68
2021/12/10 00:19:49;;;;;;;153.32;62.17;;;;;;;;;;728651;189;919133;-68
2021/12/10 00:22:15;;;;;;;181.80;65.40;;;;;;;;;;729850;189;1124395;-68
2021/12/10 00:24:40;;;;;;;182.30;68.93;;;;;;;;;;732437;189;919491;-68
2021/12/10 00:27:08;;;;;;;165.90;66.40;;;;;;;;;;725277;191;918975;-68
2021/12/10 00:29:32;;;;;;;159.53;65.10;;;;;;;;;;728305;190;918480;-68
2021/12/10 00:32:01;;;;;;;157.95;67.28;;;;;;;;;;732551;190;918823;-68
2021/12/10 00:34:29;;;;;;;183.27;66.37;;;;;;;;;;725672;189;919031;-68
2021/12/10 00:36:55;;;;;;;162.37;64.50;;;;;;;;;;731248;192;919083;-68
2021/12/10 00:39:20;;;;;;;161.80;64.13;;;;;;;;;;734076;189;919405;-69
2021/12/10 00:41:46;;;;;;;158.93;59.67;;;;;;;;;;726248;190;1022083;-67
2021/12/10 00:44:12;;;;;;;166.33;67.10;;;;;;;;;;724215;189;920949;-68
2021/12/10 00:46:38;;;;;;;176.73;63.50;;;;;;;;;;716274;190;919792;-68
2021/12/10 00:49:04;;;;;;;170.70;66.33;;;;;;;;;;717263;189;920841;-68
2021/12/10 00:51:30;;;;;;;163.77;63.03;;;;;;;;;;737543;187;920625;-68
2021/12/10 00:53:57;;;;;;;159.43;63.50;;;;;;;;;;730053;189;919615;-67
2021/12/10 00:56:22;;;;;;;167.53;66.70;;;;;;;;;;734945;189;919269;-67
2021/12/10 00:58:48;;;;;;;164.13;67.60;;;;;;;;;;734403;189;974180;-68
2021/12/10 01:01:14;;;;;;;172.65;66.18;;;;;;;;;;725289;193;919665;-67
2021/12/10 01:03:41;;;;;;;149.83;60.37;;;;;;;;;;710729;195;919680;-67
2021/12/10 01:06:07;;;;;;;163.90;59.43;;;;;;;;;;725348;192;919493;-67
2021/12/10 01:08:32;;;;;;;152.12;60.60;;;;;;;;;;739706;189;919403;-68
2021/12/10 01:10:58;;;;;;;152.97;60.10;;;;;;;;;;727264;189;919345;-67
2021/12/10 01:13:29;;;;;;;150.20;60.47;;;;;;;;;;719464;189;919858;-67
2021/12/10 01:16:16;;;;;;;148.83;58.83;;;;;;;;;;723373;189;917437;-67
2021/12/10 01:26:11;;;;;;;116.80;54.25;;;;;;;;;;722667;190;943646;-67
2021/12/10 01:28:33;;;;;;;120.27;54.40;;;;;;;;;;729234;189;920327;-69
2021/12/10 01:30:59;;;;;;;144.77;49.47;;;;;;;;;;737005;187;919518;-67
2021/12/10 01:33:25;;;;;;;127.90;49.47;;;;;;;;;;707827;193;919394;-67
2021/12/10 01:35:54;;;;;;;133.03;50.30;;;;;;;;;;723078;189;1122929;-68
2021/12/10 01:38:18;;;;;;;126.23;50.80;;;;;;;;;;740031;189;919475;-68
2021/12/10 01:40:46;;;;;;;130.27;50.47;;;;;;;;;;726911;190;919300;-68
2021/12/10 01:43:22;;;;;;;116.45;47.25;;;;;;;;;;718413;190;918948;-68
2021/12/10 01:45:45;;;;;;;103.80;45.20;;;;;;;;;;733945;189;919118;-68
2021/12/10 01:48:04;;;;;;;114.27;44.50;;;;;;;;;;718199;189;919171;-71
2021/12/10 01:50:31;;;;;;;136.97;47.23;;;;;;;;;;724551;190;919222;-68
2021/12/10 01:52:57;;;;;;;121.63;46.00;;;;;;;;;;723845;189;918584;-68
2021/12/10 01:55:23;;;;;;;113.57;44.97;;;;;;;;;;737984;189;919084;-68
2021/12/10 01:57:49;;;;;;;126.97;43.70;;;;;;;;;;734317;189;919446;-67
2021/12/10 02:00:15;;;;;;;129.07;46.67;;;;;;;;;;732332;189;919174;-67
2021/12/10 02:02:41;;;;;;;115.37;41.97;;;;;;;;;;739878;189;919195;-67
2021/12/10 02:05:07;;;;;;;126.22;46.60;;;;;;;;;;722673;189;916488;-67
2021/12/10 02:07:33;;;;;;;141.73;44.83;;;;;;;;;;719918;189;916077;-68
2021/12/10 02:09:58;;;;;;;122.93;43.57;;;;;;;;;;731543;189;916268;-67
2021/12/10 02:12:24;;;;;;;103.67;45.10;;;;;;;;;;728726;189;919828;-68
2021/12/10 02:14:58;;;;;;;103.23;37.93;;;;;;;;;;718960;189;930378;-68
2021/12/10 02:17:16;;;;;;;97.60;37.30;;;;;;;;;;720903;190;918762;-68
2021/12/10 02:19:42;;;;;;;117.53;39.67;;;;;;;;;;733242;189;919073;-67
2021/12/10 02:22:08;;;;;;;102.93;39.73;;;;;;;;;;726174;190;919479;-67
2021/12/10 02:24:33;;;;;;;92.20;36.10;;;;;;;;;;718805;190;1021071;-67
2021/12/10 02:26:59;;;;;;;107.83;39.57;;;;;;;;;;736904;189;918283;-67
2021/12/10 02:29:25;;;;;;;93.00;37.10;;;;;;;;;;735352;189;918646;-67
2021/12/10 02:31:51;;;;;;;80.30;35.40;;;;;;;;;;722188;189;919686;-68
2021/12/10 02:34:17;;;;;;;91.20;34.95;;;;;;;;;;738765;189;919262;-67
2021/12/10 02:36:43;;;;;;;101.33;37.03;;;;;;;;;;722394;189;918630;-68
2021/12/10 02:39:09;;;;;;;81.17;34.93;;;;;;;;;;724812;190;919626;-67
2021/12/10 02:41:34;;;;;;;60.87;30.13;;;;;;;;;;717287;190;919118;-67
2021/12/10 02:44:00;;;;;;;88.33;33.07;;;;;;;;;;735180;189;1104148;-67
2021/12/10 02:46:26;;;;;;;94.37;34.05;;;;;;;;;;725712;189;919723;-67
2021/12/10 02:48:52;;;;;;;73.03;32.73;;;;;;;;;;732331;189;919641;-67
2021/12/10 02:51:18;;;;;;;82.07;34.53;;;;;;;;;;735651;188;918417;-67
2021/12/10 02:53:45;;;;;;;69.23;33.37;;;;;;;;;;732945;189;919392;-67
2021/12/10 02:56:10;;;;;;;73.67;34.10;;;;;;;;;;723786;189;936049;-69
2021/12/10 02:58:35;;;;;;;80.00;32.97;;;;;;;;;;722988;193;918976;-67
2021/12/10 03:01:01;;;;;;;64.13;30.90;;;;;;;;;;722728;189;921344;-67
2021/12/10 03:03:27;;;;;;;63.93;31.43;;;;;;;;;;734884;189;919179;-67
2021/12/10 03:05:53;;;;;;;69.45;29.75;;;;;;;;;;719296;189;920844;-66
2021/12/10 03:08:19;;;;;;;66.23;29.67;;;;;;;;;;728598;189;918718;-67
2021/12/10 03:10:45;;;;;;;78.70;30.83;;;;;;;;;;727180;190;919042;-67
2021/12/10 03:13:11;;;;;;;72.20;31.15;;;;;;;;;;734363;189;920598;-67
2021/12/10 03:15:37;;;;;;;60.10;26.40;;;;;;;;;;739145;187;915841;-67
2021/12/10 03:18:03;;;;;;;65.73;27.83;;;;;;;;;;720176;189;915518;-68
2021/12/10 03:20:29;;;;;;;54.47;27.13;;;;;;;;;;719475;189;1103914;-68
2021/12/10 03:22:54;;;;;;;65.43;27.40;;;;;;;;;;740330;189;916930;-67
2021/12/10 03:25:20;;;;;;;64.33;29.43;;;;;;;;;;734007;189;919074;-68
2021/12/10 03:27:46;;;;;;;75.33;33.80;;;;;;;;;;719923;189;920866;-67
2021/12/10 03:30:12;;;;;;;65.93;30.10;;;;;;;;;;739248;189;918428;-67
2021/12/10 03:32:38;;;;;;;66.60;28.50;;;;;;;;;;718861;190;920329;-67
2021/12/10 03:35:04;;;;;;;53.83;27.77;;;;;;;;;;734879;189;919448;-67
2021/12/10 03:37:30;;;;;;;52.67;27.27;;;;;;;;;;719760;190;1021152;-67
2021/12/10 03:39:56;;;;;;;47.80;26.03;;;;;;;;;;740207;189;919259;-67
2021/12/10 03:42:21;;;;;;;55.53;23.90;;;;;;;;;;721584;189;919627;-67
2021/12/10 03:44:47;;;;;;;46.03;23.85;;;;;;;;;;730688;189;916492;-67
2021/12/10 03:47:13;;;;;;;51.47;23.83;;;;;;;;;;723669;189;918921;-67
2021/12/10 03:49:39;;;;;;;58.23;24.00;;;;;;;;;;728897;189;919284;-67
2021/12/10 03:52:05;;;;;;;46.73;23.37;;;;;;;;;;731561;190;919336;-68
2021/12/10 03:54:31;;;;;;;48.07;23.37;;;;;;;;;;725493;193;919244;-67
2021/12/10 03:56:57;;;;;;;47.67;22.50;;;;;;;;;;725099;189;1201123;-68
2021/12/10 03:59:22;;;;;;;51.97;25.13;;;;;;;;;;718519;190;920021;-68
2021/12/10 04:01:48;;;;;;;51.60;24.97;;;;;;;;;;729421;186;627198;-67
2021/12/10 04:04:14;;;;;;;49.17;22.37;;;;;;;;;;741441;189;637143;-67
2021/12/10 04:06:40;;;;;;;42.53;21.10;;;;;;;;;;723402;189;632024;-68
2021/12/10 04:09:06;;;;;;;43.57;22.63;;;;;;;;;;736049;189;626017;-68
2021/12/10 04:11:32;;;;;;;41.93;20.97;;;;;;;;;;727058;189;620939;-67
2021/12/10 04:13:57;;;;;;;51.43;24.43;;;;;;;;;;726335;189;627990;-68
2021/12/10 04:16:23;;;;;;;41.80;21.80;;;;;;;;;;730884;189;919552;-67
2021/12/10 04:18:49;;;;;;;39.80;22.03;;;;;;;;;;733750;191;919358;-68
2021/12/10 04:21:15;;;;;;;42.30;21.45;;;;;;;;;;726401;190;1021173;-68
2021/12/10 04:23:42;;;;;;;35.90;19.17;;;;;;;;;;720747;190;919244;-68
2021/12/10 04:26:08;;;;;;;38.70;18.17;;;;;;;;;;727184;189;919232;-67
2021/12/10 04:28:34;;;;;;;40.03;20.30;;;;;;;;;;734884;189;883274;-67
2021/12/10 04:31:00;;;;;;;30.80;17.50;;;;;;;;;;730024;189;919118;-67
2021/12/10 04:33:26;;;;;;;35.10;18.87;;;;;;;;;;733138;189;918994;-67
2021/12/10 04:35:52;;;;;;;33.60;18.67;;;;;;;;;;723556;189;918777;-67
2021/12/10 04:38:18;;;;;;;32.47;17.80;;;;;;;;;;718635;189;918351;-68
2021/12/10 04:40:47;;;;;;;36.23;18.40;;;;;;;;;;735459;189;919115;-67
2021/12/10 04:43:11;;;;;;;33.70;19.13;;;;;;;;;;727780;189;929207;-67
2021/12/10 04:45:37;;;;;;;39.08;18.48;;;;;;;;;;726204;190;919262;-67
2021/12/10 04:48:03;;;;;;;27.43;16.13;;;;;;;;;;725001;189;919814;-68
2021/12/10 04:50:30;;;;;;;36.20;18.00;;;;;;;;;;728631;189;919538;-66
2021/12/10 04:52:55;;;;;;;34.27;19.17;;;;;;;;;;734701;189;917677;-68
2021/12/10 04:55:21;;;;;;;35.60;20.13;;;;;;;;;;726924;190;919714;-67
2021/12/10 04:57:47;;;;;;;39.23;20.30;;;;;;;;;;731076;189;919817;-67
2021/12/10 05:00:13;;;;;;;35.90;19.57;;;;;;;;;;730545;189;918858;-68
2021/12/10 05:02:39;;;;;;;37.03;19.60;;;;;;;;;;723850;189;919320;-68
2021/12/10 05:05:05;;;;;;;37.67;21.77;;;;;;;;;;731069;189;641369;-67
2021/12/10 05:07:35;;;;;;;41.53;20.90;;;;;;;;;;731844;190;919401;-68
2021/12/10 05:09:57;;;;;;;39.80;21.53;;;;;;;;;;726852;189;918844;-67
2021/12/10 05:12:22;;;;;;;39.23;22.80;;;;;;;;;;730726;189;919255;-67
2021/12/10 05:14:48;;;;;;;42.40;22.40;;;;;;;;;;716800;193;915451;-67
2021/12/10 05:17:15;;;;;;;39.63;21.27;;;;;;;;;;732010;189;616046;-67
2021/12/10 05:19:41;;;;;;;33.10;19.37;;;;;;;;;;718985;193;631851;-70
2021/12/10 05:22:07;;;;;;;38.08;19.58;;;;;;;;;;717715;192;915210;-68
2021/12/10 05:24:33;;;;;;;42.20;21.63;;;;;;;;;;729893;192;1023709;-68
2021/12/10 05:26:59;;;;;;;41.37;21.23;;;;;;;;;;729635;189;623623;-68
2021/12/10 05:29:24;;;;;;;37.13;20.90;;;;;;;;;;735151;189;915371;-70
2021/12/10 05:31:50;;;;;;;46.67;22.60;;;;;;;;;;729965;189;633959;-68
2021/12/10 05:34:16;;;;;;;40.50;21.00;;;;;;;;;;725247;189;916329;-68
2021/12/10 05:36:42;;;;;;;44.03;22.63;;;;;;;;;;729279;187;916744;-68
2021/12/10 05:39:08;;;;;;;41.50;21.77;;;;;;;;;;724997;189;916016;-68
2021/12/10 05:41:34;;;;;;;46.03;23.42;;;;;;;;;;734631;189;1529343;-68
2021/12/10 05:43:59;;;;;;;46.17;22.90;;;;;;;;;;727060;189;919760;-68
2021/12/10 05:46:25;;;;;;;44.77;23.50;;;;;;;;;;717752;189;920267;-68
2021/12/10 05:48:51;;;;;;;49.53;25.37;;;;;;;;;;725760;191;919968;-68
2021/12/10 05:51:17;;;;;;;53.43;25.33;;;;;;;;;;731242;189;918889;-68
2021/12/10 05:53:43;;;;;;;48.60;24.83;;;;;;;;;;724066;189;916250;-67
2021/12/10 05:56:09;;;;;;;48.00;24.20;;;;;;;;;;729510;189;614004;-68
2021/12/10 05:58:35;;;;;;;54.40;24.80;;;;;;;;;;736516;189;673119;-68
2021/12/10 06:01:03;;;;;;;50.53;24.93;;;;;;;;;;733087;189;880026;-68
2021/12/10 06:03:26;;;;;;;47.22;23.87;;;;;;;;;;733947;189;915273;-68
2021/12/10 06:05:52;;;;;;;53.87;25.67;;;;;;;;;;729275;189;920264;-68
2021/12/10 06:08:18;;;;;;;46.03;24.37;;;;;;;;;;727081;190;920316;-68
2021/12/10 06:10:44;;;;;;;45.90;24.42;;;;;;;;;;720855;189;914824;-68
2021/12/10 06:13:10;;;;;;;46.93;25.40;;;;;;;;;;725128;189;922077;-68
2021/12/10 06:15:36;;;;;;;48.60;24.70;;;;;;;;;;727631;189;920555;-66
2021/12/10 06:18:01;;;;;;;52.67;26.87;;;;;;;;;;721266;189;920175;-68
2021/12/10 06:20:28;;;;;;;48.27;24.10;;;;;;;;;;723626;189;920555;-68
2021/12/10 06:22:53;;;;;;;47.50;26.35;;;;;;;;;;726885;190;918401;-67
2021/12/10 06:25:19;;;;;;;54.90;28.30;;;;;;;;;;717365;189;918377;-68
2021/12/10 06:27:45;;;;;;;63.23;30.93;;;;;;;;;;731762;189;923412;-69
2021/12/10 06:30:14;;;;;;;63.00;29.83;;;;;;;;;;717310;189;919055;-68
2021/12/10 06:32:39;;;;;;;58.30;27.67;;;;;;;;;;718819;190;918253;-68
2021/12/10 06:35:05;;;;;;;55.38;25.95;;;;;;;;;;722803;189;920629;-68
2021/12/10 06:37:31;;;;;;;54.57;24.60;;;;;;;;;;728186;189;918348;-68
2021/12/10 06:39:57;;;;;;;51.00;24.67;;;;;;;;;;725163;189;914547;-68
2021/12/10 06:42:23;;;;;;;62.40;28.62;;;;;;;;;;725892;189;910448;-68
2021/12/10 06:44:49;;;;;;;49.03;22.50;;;;;;;;;;733217;189;915582;-69
2021/12/10 06:47:15;;;;;;;52.90;22.90;;;;;;;;;;717268;189;927462;-68
2021/12/10 06:49:41;;;;;;;53.07;23.97;;;;;;;;;;723558;189;1013361;-68
2021/12/10 06:52:07;;;;;;;52.90;25.47;;;;;;;;;;733890;189;913881;-68
2021/12/10 06:54:32;;;;;;;55.83;27.40;;;;;;;;;;731648;189;915747;-68
2021/12/10 06:56:59;;;;;;;61.00;26.73;;;;;;;;;;719227;189;1060613;-68
2021/12/10 06:59:26;;;;;;;59.00;26.10;;;;;;;;;;732871;189;919029;-70
2021/12/10 07:01:50;;;;;;;58.33;27.90;;;;;;;;;;731308;189;908290;-68
2021/12/10 07:04:16;;;;;;;61.77;27.90;;;;;;;;;;735696;189;941145;-68
2021/12/10 07:06:42;;;;;;;59.00;26.43;;;;;;;;;;729469;189;919127;-67
2021/12/10 07:09:08;;;;;;;69.37;30.30;;;;;;;;;;737010;189;919263;-68
2021/12/10 07:11:33;;;;;;;56.93;28.13;;;;;;;;;;720695;189;919367;-68
2021/12/10 07:13:59;;;;;;;60.43;28.87;;;;;;;;;;734092;189;916921;-68
2021/12/10 07:16:25;;;;;;;60.77;28.37;;;;;;;;;;728432;189;632679;-68
2021/12/10 07:18:51;;;;;;;65.43;29.17;;;;;;;;;;722510;189;918528;-68
2021/12/10 07:21:17;;;;;;;64.17;30.43;;;;;;;;;;718604;189;918764;-68
2021/12/10 07:23:43;;;;;;;68.50;29.40;;;;;;;;;;729347;189;916371;-68
2021/12/10 07:26:08;;;;;;;58.10;28.03;;;;;;;;;;729386;189;916789;-68
2021/12/10 07:28:34;;;;;;;50.63;25.93;;;;;;;;;;731590;189;918971;-70
2021/12/10 07:31:00;;;;;;;59.67;27.00;;;;;;;;;;720152;189;919500;-69
2021/12/10 07:33:26;;;;;;;70.50;29.43;;;;;;;;;;727863;189;629881;-69
2021/12/10 07:35:52;;;;;;;65.70;27.73;;;;;;;;;;725513;189;919494;-69
2021/12/10 07:38:18;;;;;;;67.97;30.13;;;;;;;;;;725155;189;1020937;-68
2021/12/10 07:40:44;;;;;;;70.80;29.50;;;;;;;;;;732376;189;922580;-68
2021/12/10 07:43:10;;;;;;;79.50;29.60;;;;;;;;;;726002;190;923695;-68
2021/12/10 07:45:35;;;;;;;70.20;28.43;;;;;;;;;;719157;190;920215;-68
2021/12/10 07:48:06;;;;;;;60.83;28.95;;;;;;;;;;730528;189;919382;-68
2021/12/10 07:50:28;;;;;;;55.83;26.07;;;;;;;;;;729782;189;1016205;-68
2021/12/10 07:52:55;;;;;;;60.27;26.43;;;;;;;;;;708729;193;918150;-68
2021/12/10 07:55:20;;;;;;;74.93;27.20;;;;;;;;;;733291;189;1020321;-68
2021/12/10 07:57:46;;;;;;;69.00;29.65;;;;;;;;;;722372;189;1020342;-68
2021/12/10 08:00:12;;;;;;;86.53;31.83;;;;;;;;;;737070;189;918797;-68
2021/12/10 08:02:38;;;;;;;70.00;30.27;;;;;;;;;;737330;189;917572;-68
2021/12/10 08:05:04;;;;;;;75.93;32.00;;;;;;;;;;725824;189;911544;-68
2021/12/10 08:07:30;;;;;;;65.77;30.73;;;;;;;;;;733316;189;918976;-69
2021/12/10 08:09:56;;;;;;;83.43;30.63;;;;;;;;;;719330;189;920074;-69
2021/12/10 08:12:22;;;;;;;72.32;29.73;;;;;;;;;;726296;189;919870;-66
2021/12/10 08:14:52;;;;;;;70.20;27.50;;;;;;;;;;736137;189;919731;-68
2021/12/10 08:17:14;;;;;;;67.67;28.83;;;;;;;;;;709096;193;918964;-68
2021/12/10 08:19:40;;;;;;;68.50;26.83;;;;;;;;;;719320;189;919654;-69
2021/12/10 08:22:06;;;;;;;59.20;26.37;;;;;;;;;;724505;190;919803;-69
2021/12/10 08:24:31;;;;;;;69.60;26.57;;;;;;;;;;731651;189;919835;-69
2021/12/10 08:26:57;;;;;;;78.13;29.87;;;;;;;;;;727539;189;918386;-69
2021/12/10 08:29:25;;;;;;;75.30;28.60;;;;;;;;;;730850;189;918655;-68
2021/12/10 08:31:49;;;;;;;64.53;27.08;;;;;;;;;;725911;189;918178;-69
2021/12/10 08:34:15;;;;;;;59.33;27.90;;;;;;;;;;721858;189;918333;-68
2021/12/10 08:36:41;;;;;;;68.20;27.83;;;;;;;;;;741803;189;627717;-68
2021/12/10 08:39:06;;;;;;;70.00;27.40;;;;;;;;;;734814;189;918067;-68
2021/12/10 08:41:34;;;;;;;55.40;25.00;;;;;;;;;;727487;190;919402;-68
2021/12/10 08:43:58;;;;;;;67.40;27.90;;;;;;;;;;721886;190;919765;-68
2021/12/10 08:46:24;;;;;;;55.27;24.53;;;;;;;;;;725830;189;920385;-68
2021/12/10 08:48:50;;;;;;;63.47;25.37;;;;;;;;;;731500;189;918879;-69
2021/12/10 08:51:16;;;;;;;54.40;24.30;;;;;;;;;;733962;186;919390;-68
2021/12/10 08:53:42;;;;;;;58.63;24.80;;;;;;;;;;730984;189;920310;-68
2021/12/10 08:56:07;;;;;;;65.37;27.00;;;;;;;;;;728568;189;920081;-68
2021/12/10 08:58:33;;;;;;;66.33;25.70;;;;;;;;;;718909;190;917110;-68
2021/12/10 09:01:05;;;;;;;57.40;26.93;;;;;;;;;;722527;189;919745;-68
2021/12/10 09:03:32;;;;;;;36.20;19.17;;;;;;;;;;735293;189;919750;-68
2021/12/10 09:05:57;;;;;;;45.40;20.40;;;;;;;;;;714483;193;918240;-68
2021/12/10 09:08:22;;;;;;;35.83;18.20;;;;;;;;;;720967;189;970615;-68
2021/12/10 09:10:48;;;;;;;48.23;20.40;;;;;;;;;;722942;190;918415;-67
2021/12/10 09:13:16;;;;;;;49.43;22.73;;;;;;;;;;727328;189;919887;-67
2021/12/10 09:15:41;;;;;;;46.47;23.23;;;;;;;;;;736051;189;919187;-68
2021/12/10 09:18:08;;;;;;;46.90;24.37;;;;;;;;;;724111;189;919414;-68
2021/12/10 09:20:35;;;;;;;42.17;22.37;;;;;;;;;;727881;189;918257;-68
2021/12/10 09:22:58;;;;;;;45.00;22.33;;;;;;;;;;727353;189;919568;-68
2021/12/10 09:25:24;;;;;;;42.53;20.47;;;;;;;;;;726434;189;919514;-68
2021/12/10 09:27:50;;;;;;;44.40;22.77;;;;;;;;;;735754;189;919442;-68
2021/12/10 09:30:16;;;;;;;40.90;19.37;;;;;;;;;;727821;189;919061;-67
2021/12/10 09:32:42;;;;;;;43.10;20.43;;;;;;;;;;734421;189;919809;-67
2021/12/10 09:35:08;;;;;;;36.67;19.35;;;;;;;;;;738813;189;919474;-67
2021/12/10 09:37:34;;;;;;;36.77;19.20;;;;;;;;;;729206;189;919822;-66
2021/12/10 09:40:00;;;;;;;36.13;19.60;;;;;;;;;;718567;189;919075;-67
2021/12/10 09:42:26;;;;;;;38.10;20.47;;;;;;;;;;738770;189;919183;-68
2021/12/10 09:44:52;;;;;;;35.63;19.67;;;;;;;;;;722679;189;919300;-68
2021/12/10 09:47:18;;;;;;;36.00;21.00;;;;;;;;;;733693;189;924883;-67
2021/12/10 09:49:46;;;;;;;33.10;19.30;;;;;;;;;;732256;189;921021;-69
2021/12/10 09:52:11;;;;;;;32.20;18.53;;;;;;;;;;727071;189;970586;-68
2021/12/10 09:54:37;;;;;;;43.93;18.73;;;;;;;;;;724034;189;919601;-69
2021/12/10 09:57:04;;;;;;;41.92;18.87;;;;;;;;;;733012;189;919023;-69
2021/12/10 09:59:29;;;;;;;21.57;12.40;;;;;;;;;;726039;192;919540;-68
2021/12/10 10:01:57;;;;;;;21.10;13.23;;;;;;;;;;734652;189;919680;-69
2021/12/10 10:04:21;;;;;;;22.63;12.50;;;;;;;;;;721973;189;918289;-69
2021/12/10 10:06:47;;;;;;;25.20;14.97;;;;;;;;;;724019;192;918313;-68
2021/12/10 10:09:13;;;;;;;28.50;16.30;;;;;;;;;;733214;189;919391;-68
2021/12/10 10:11:39;;;;;;;24.67;15.60;;;;;;;;;;729971;188;919739;-68
2021/12/10 10:14:04;;;;;;;22.20;14.93;;;;;;;;;;718644;189;918970;-68
2021/12/10 10:16:30;;;;;;;19.97;12.83;;;;;;;;;;727833;189;918939;-68
2021/12/10 10:18:56;;;;;;;28.70;12.53;;;;;;;;;;721289;189;919670;-68
2021/12/10 10:21:22;;;;;;;23.25;12.68;;;;;;;;;;731954;189;915826;-68
2021/12/10 10:23:48;;;;;;;22.40;12.97;;;;;;;;;;729531;189;916412;-68
2021/12/10 10:26:14;;;;;;;20.63;12.57;;;;;;;;;;729335;189;918344;-68
2021/12/10 10:28:40;;;;;;;24.40;13.90;;;;;;;;;;719148;189;919029;-68
2021/12/10 10:31:08;;;;;;;25.85;13.95;;;;;;;;;;723334;189;919261;-68
2021/12/10 10:33:32;;;;;;;24.50;15.17;;;;;;;;;;730364;189;920007;-68
2021/12/10 10:35:58;;;;;;;25.17;15.70;;;;;;;;;;727379;189;918792;-67
2021/12/10 10:38:24;;;;;;;24.92;15.02;;;;;;;;;;720346;189;919202;-67
2021/12/10 10:40:49;;;;;;;26.03;13.93;;;;;;;;;;744094;187;918947;-68
2021/12/10 10:43:15;;;;;;;25.97;16.27;;;;;;;;;;729291;189;919268;-68
2021/12/10 10:45:42;;;;;;;23.33;14.03;;;;;;;;;;720227;190;921168;-68
2021/12/10 10:48:07;;;;;;;23.87;13.63;;;;;;;;;;739080;189;919925;-68
2021/12/10 10:50:34;;;;;;;24.57;14.00;;;;;;;;;;726923;189;1023148;-68
2021/12/10 10:52:59;;;;;;;25.48;14.50;;;;;;;;;;724059;189;919429;-69
2021/12/10 10:55:25;;;;;;;23.27;14.00;;;;;;;;;;723372;189;919643;-68
2021/12/10 10:57:52;;;;;;;25.17;14.30;;;;;;;;;;729638;189;920352;-70
2021/12/10 11:00:22;;;;;;;19.67;14.10;;;;;;;;;;722514;189;919039;-70
2021/12/10 11:02:52;;;;;;;19.67;11.50;;;;;;;;;;723818;189;914755;-70
2021/12/10 11:05:16;;;;;;;17.30;10.43;;;;;;;;;;732495;189;919065;-70
2021/12/10 11:07:42;;;;;;;19.93;10.97;;;;;;;;;;720555;189;917391;-70
2021/12/10 11:10:08;;;;;;;15.30;9.40;;;;;;;;;;729480;189;918519;-71
2021/12/10 11:12:33;;;;;;;16.47;10.03;;;;;;;;;;732990;190;916514;-71
2021/12/10 11:14:59;;;;;;;18.70;9.60;;;;;;;;;;727606;189;633446;-70
2021/12/10 11:17:26;;;;;;;15.73;9.40;;;;;;;;;;727353;189;900593;-70
2021/12/10 11:19:55;;;;;;;16.10;9.50;;;;;;;;;;727174;189;918989;-70
2021/12/10 11:22:22;;;;;;;13.23;8.30;;;;;;;;;;728335;189;918786;-70
2021/12/10 11:24:46;;;;;;;16.00;7.93;;;;;;;;;;719458;190;919380;-70
2021/12/10 11:27:13;;;;;;;12.90;8.03;;;;;;;;;;732224;189;920080;-69
2021/12/10 11:29:39;;;;;;;16.00;10.00;;;;;;;;;;730953;189;919057;-70
2021/12/10 11:32:05;;;;;;;17.80;10.07;;;;;;;;;;723574;189;918948;-70
2021/12/10 11:34:36;;;;;;;14.83;9.43;;;;;;;;;;719743;189;918480;-70
2021/12/10 11:37:02;;;;;;;18.97;9.50;;;;;;;;;;730795;189;919452;-70
2021/12/10 11:39:34;;;;;;;13.48;8.52;;;;;;;;;;735601;189;919573;-70
2021/12/10 11:42:00;;;;;;;12.97;9.40;;;;;;;;;;728595;187;919625;-70
2021/12/10 11:44:54;;;;;;;14.70;9.13;;;;;;;;;;728631;189;919128;-70
2021/12/10 11:47:28;;;;;;;16.63;9.40;;;;;;;;;;730242;189;695693;-71
2021/12/10 11:49:35;;;;;;;13.70;7.87;;;;;;;;;;730971;189;919313;-71
2021/12/10 11:52:03;;;;;;;11.77;7.10;;;;;;;;;;728752;189;919692;-71
2021/12/10 11:54:30;;;;;;;8.63;5.90;;;;;;;;;;726102;189;921486;-72
2021/12/10 11:56:59;;;;;;;14.90;8.20;;;;;;;;;;727014;190;927059;-72
2021/12/10 11:59:25;;;;;;;14.02;8.40;;;;;;;;;;733639;189;918194;-70
2021/12/10 12:01:54;;;;;;;13.93;8.47;;;;;;;;;;722727;189;919275;-71
2021/12/10 12:04:20;;;;;;;14.97;10.60;;;;;;;;;;727885;189;919004;-72
2021/12/10 12:06:49;;;;;;;22.13;15.90;;;;;;;;;;727301;190;622270;-71
2021/12/10 12:09:11;;;;;;;23.73;14.50;;;;;;;;;;728903;190;629285;-72
2021/12/10 12:11:37;;;;;;;32.30;18.93;;;;;;;;;;717436;190;919461;-72
2021/12/10 12:14:03;;;;;;;18.10;11.13;;;;;;;;;;722410;190;1058993;-71
2021/12/10 12:16:29;;;;;;;15.77;9.97;;;;;;;;;;728315;190;919056;-72
2021/12/10 12:18:55;;;;;;;13.67;8.77;;;;;;;;;;726115;189;938467;-73
2021/12/10 12:21:53;;;;;;;19.87;10.03;;;;;;;;;;728965;189;919032;-72
2021/12/10 12:26:37;;;;;;;18.30;9.50;;;;;;;;;;721723;189;919401;-73
2021/12/10 12:29:06;;;;;;;16.20;9.13;;;;;;;;;;733116;189;918804;-73
2021/12/10 12:31:33;;;;;;;12.60;7.07;;;;;;;;;;722993;189;918788;-72
2021/12/10 12:34:02;;;;;;;13.70;7.25;;;;;;;;;;730164;189;1020012;-72
2021/12/10 12:36:28;;;;;;;14.38;8.45;;;;;;;;;;726964;189;919186;-70
2021/12/10 12:38:54;;;;;;;13.23;8.73;;;;;;;;;;730581;189;919446;-72
2021/12/10 12:41:21;;;;;;;12.60;7.30;;;;;;;;;;726107;189;919687;-72
2021/12/10 12:43:47;;;;;;;16.73;8.77;;;;;;;;;;723742;189;918807;-72
2021/12/10 12:46:12;;;;;;;11.57;7.40;;;;;;;;;;727082;189;919189;-71
2021/12/10 12:48:38;;;;;;;16.37;9.27;;;;;;;;;;728941;189;919498;-70
2021/12/10 12:51:07;;;;;;;11.97;7.00;;;;;;;;;;729532;189;919640;-71
2021/12/10 12:53:34;;;;;;;9.93;7.17;;;;;;;;;;733628;189;919636;-70
2021/12/10 12:55:59;;;;;;;10.60;7.23;;;;;;;;;;722326;189;919131;-68
2021/12/10 12:58:25;;;;;;;11.80;7.43;;;;;;;;;;719639;189;920267;-68
2021/12/10 13:00:51;;;;;;;10.67;6.50;;;;;;;;;;726336;189;918968;-69
2021/12/10 13:03:19;;;;;;;12.30;7.77;;;;;;;;;;725840;189;918790;-69
2021/12/10 13:05:47;;;;;;;14.13;10.17;;;;;;;;;;725278;189;927562;-70
2021/12/10 13:08:11;;;;;;;11.43;6.93;;;;;;;;;;720763;191;919188;-70
2021/12/10 13:10:39;;;;;;;9.90;5.77;;;;;;;;;;732435;190;629229;-70
2021/12/10 13:13:11;;;;;;;10.20;6.47;;;;;;;;;;725939;190;919588;-69
2021/12/10 13:15:33;;;;;;;12.50;6.23;;;;;;;;;;721221;190;918617;-71
2021/12/10 13:17:59;;;;;;;10.77;8.10;;;;;;;;;;727742;189;919338;-72
2021/12/10 13:20:24;;;;;;;14.13;7.17;;;;;;;;;;738051;189;616138;-72
2021/12/10 13:22:51;;;;;;;16.08;7.47;;;;;;;;;;726060;189;920796;-72
2021/12/10 13:25:16;;;;;;;16.77;10.00;;;;;;;;;;724128;189;919468;-72
2021/12/10 13:27:41;;;;;;;23.47;12.40;;;;;;;;;;724198;189;919433;-73
2021/12/10 13:30:08;;;;;;;16.87;10.05;;;;;;;;;;723640;189;919951;-72
2021/12/10 13:32:34;;;;;;;21.60;14.10;;;;;;;;;;730585;189;919681;-72
2021/12/10 13:34:59;;;;;;;17.37;12.60;;;;;;;;;;724357;189;919352;-72
2021/12/10 13:37:25;;;;;;;16.67;11.07;;;;;;;;;;723116;189;919461;-72
2021/12/10 13:39:54;;;;;;;11.77;6.30;;;;;;;;;;719510;192;1021161;-72
2021/12/10 13:42:17;;;;;;;15.60;9.20;;;;;;;;;;719914;192;916638;-71
2021/12/10 13:44:45;;;;;;;11.43;7.50;;;;;;;;;;725129;189;1020107;-72
2021/12/10 13:47:09;;;;;;;9.93;6.73;;;;;;;;;;729378;189;638254;-72
2021/12/10 13:49:40;;;;;;;13.50;5.83;;;;;;;;;;725094;189;917709;-72
2021/12/10 13:52:06;;;;;;;8.03;5.33;;;;;;;;;;731912;189;898371;-73
2021/12/10 13:54:32;;;;;;;8.90;5.90;;;;;;;;;;724126;189;918605;-73
2021/12/10 13:56:58;;;;;;;7.67;5.13;;;;;;;;;;719988;189;994401;-72
2021/12/10 13:59:24;;;;;;;10.53;6.73;;;;;;;;;;730912;189;920379;-70
2021/12/10 14:01:50;;;;;;;9.27;6.27;;;;;;;;;;733432;189;945133;-73
2021/12/10 14:04:16;;;;;;;15.73;6.63;;;;;;;;;;731148;189;919626;-72
2021/12/10 14:06:45;;;;;;;9.80;5.10;;;;;;;;;;730891;189;919084;-72